Terminal Aerodrome Forecast
Issued by NWS

Home | Current Version | Previous Version | Text Only | Print | Product List | Glossary On
Versions: 1 2 3 4 5 6 7 8 9 10 11 12 13 14 15 16
000
FTUS41 KBTV 301945 AAA
TAFSLK
TAF AMD
KSLK 301945Z 3020/3118 27008G18KT 3SM -SN BR OVC025
     FM310000 29008G15KT 2SM -SN BR OVC012
     FM310600 31010KT 6SM BR OVC025
     FM311400 29008KT P6SM SCT030=

USA.gov is the U.S. government's official web portal to all federal, state and local government web resources and services.